sensor_id;sensor_type;location;lat;lon;timestamp;pressure;altitude;pressure_sealevel;temperature;humidity
72548;BME280;60570;50.848;6.776;2024-01-30T00:00:23;101695.22;;;10.13;67.45
72548;BME280;60570;50.848;6.776;2024-01-30T00:01:24;101694.38;;;10.13;67.96
72548;BME280;60570;50.848;6.776;2024-01-30T00:02:25;101694.91;;;10.15;67.41
72548;BME280;60570;50.848;6.776;2024-01-30T00:03:26;101698.84;;;10.14;67.91
72548;BME280;60570;50.848;6.776;2024-01-30T00:04:29;101706.53;;;10.17;67.41
72548;BME280;60570;50.848;6.776;2024-01-30T00:05:30;101697.09;;;10.18;67.53
72548;BME280;60570;50.848;6.776;2024-01-30T00:06:32;101700.69;;;10.18;67.40
72548;BME280;60570;50.848;6.776;2024-01-30T00:07:33;101698.84;;;10.14;67.78
72548;BME280;60570;50.848;6.776;2024-01-30T00:08:33;101694.59;;;10.16;67.79
72548;BME280;60570;50.848;6.776;2024-01-30T00:09:35;101692.97;;;10.15;67.45
72548;BME280;60570;50.848;6.776;2024-01-30T00:10:36;101699.66;;;10.14;67.84
72548;BME280;60570;50.848;6.776;2024-01-30T00:11:38;101692.66;;;10.17;67.46
72548;BME280;60570;50.848;6.776;2024-01-30T00:12:38;101686.59;;;10.15;67.58
72548;BME280;60570;50.848;6.776;2024-01-30T00:13:39;101690.19;;;10.15;67.85
72548;BME280;60570;50.848;6.776;2024-01-30T00:14:42;101694.00;;;10.19;67.45
72548;BME280;60570;50.848;6.776;2024-01-30T00:15:43;101688.78;;;10.18;67.74
72548;BME280;60570;50.848;6.776;2024-01-30T00:16:45;101693.50;;;10.17;67.31
72548;BME280;60570;50.848;6.776;2024-01-30T00:17:46;101693.50;;;10.17;67.37
72548;BME280;60570;50.848;6.776;2024-01-30T00:18:47;101682.69;;;10.16;67.47
72548;BME280;60570;50.848;6.776;2024-01-30T00:19:48;101691.34;;;10.14;67.53
72548;BME280;60570;50.848;6.776;2024-01-30T00:20:49;101684.63;;;10.15;67.71
72548;BME280;60570;50.848;6.776;2024-01-30T00:21:51;101688.25;;;10.16;67.42
72548;BME280;60570;50.848;6.776;2024-01-30T00:22:51;101685.47;;;10.16;67.52
72548;BME280;60570;50.848;6.776;2024-01-30T00:23:53;101679.59;;;10.17;67.56
72548;BME280;60570;50.848;6.776;2024-01-30T00:24:54;101687.72;;;10.14;67.39
72548;BME280;60570;50.848;6.776;2024-01-30T00:25:55;101677.72;;;10.13;67.62
72548;BME280;60570;50.848;6.776;2024-01-30T00:26:56;101681.34;;;10.13;67.67
72548;BME280;60570;50.848;6.776;2024-01-30T00:27:58;101682.19;;;10.14;67.52
72548;BME280;60570;50.848;6.776;2024-01-30T00:28:58;101679.41;;;10.14;67.40
72548;BME280;60570;50.848;6.776;2024-01-30T00:30:02;101680.22;;;10.14;67.38
72548;BME280;60570;50.848;6.776;2024-01-30T00:31:03;101683.00;;;10.14;67.65
72548;BME280;60570;50.848;6.776;2024-01-30T00:32:05;101676.94;;;10.12;67.71
72548;BME280;60570;50.848;6.776;2024-01-30T00:33:06;101673.00;;;10.13;67.98
72548;BME280;60570;50.848;6.776;2024-01-30T00:34:08;101682.19;;;10.14;67.68
72548;BME280;60570;50.848;6.776;2024-01-30T00:35:09;101681.34;;;10.13;67.44
72548;BME280;60570;50.848;6.776;2024-01-30T00:36:11;101682.47;;;10.12;67.76
72548;BME280;60570;50.848;6.776;2024-01-30T00:37:12;101683.28;;;10.13;67.83
72548;BME280;60570;50.848;6.776;2024-01-30T00:38:14;101683.28;;;10.13;67.52
72548;BME280;60570;50.848;6.776;2024-01-30T00:39:14;101683.28;;;10.13;67.77
72548;BME280;60570;50.848;6.776;2024-01-30T00:40:16;101685.78;;;10.14;67.43
72548;BME280;60570;50.848;6.776;2024-01-30T00:41:18;101675.47;;;10.15;67.78
72548;BME280;60570;50.848;6.776;2024-01-30T00:42:20;101681.03;;;10.15;67.53
72548;BME280;60570;50.848;6.776;2024-01-30T00:43:21;101684.31;;;10.17;67.52
72548;BME280;60570;50.848;6.776;2024-01-30T00:44:25;101676.63;;;10.14;67.55
72548;BME280;60570;50.848;6.776;2024-01-30T00:45:27;101679.91;;;10.16;67.40
72548;BME280;60570;50.848;6.776;2024-01-30T00:46:28;101679.09;;;10.15;67.37
72548;BME280;60570;50.848;6.776;2024-01-30T00:47:29;101678.78;;;10.17;67.55
72548;BME280;60570;50.848;6.776;2024-01-30T00:48:33;101674.38;;;10.16;67.21
72548;BME280;60570;50.848;6.776;2024-01-30T00:49:34;101679.09;;;10.15;67.64
72548;BME280;60570;50.848;6.776;2024-01-30T00:50:34;101679.91;;;10.16;67.26
72548;BME280;60570;50.848;6.776;2024-01-30T00:51:36;101667.47;;;10.13;67.76
72548;BME280;60570;50.848;6.776;2024-01-30T00:52:37;101671.06;;;10.14;67.83
72548;BME280;60570;50.848;6.776;2024-01-30T00:53:39;101669.13;;;10.14;67.80
72548;BME280;60570;50.848;6.776;2024-01-30T00:54:42;101669.91;;;10.15;67.44
72548;BME280;60570;50.848;6.776;2024-01-30T00:55:43;101669.63;;;10.16;67.20
72548;BME280;60570;50.848;6.776;2024-01-30T00:56:44;101675.16;;;10.16;67.60
72548;BME280;60570;50.848;6.776;2024-01-30T00:57:45;101670.75;;;10.15;67.50
72548;BME280;60570;50.848;6.776;2024-01-30T00:58:47;101670.44;;;10.17;67.23
72548;BME280;60570;50.848;6.776;2024-01-30T00:59:48;101672.09;;;10.18;67.50
72548;BME280;60570;50.848;6.776;2024-01-30T01:00:51;101675.47;;;10.15;67.29
72548;BME280;60570;50.848;6.776;2024-01-30T01:01:52;101668.88;;;10.11;67.60
72548;BME280;60570;50.848;6.776;2024-01-30T01:02:54;101673.63;;;10.10;67.74
72548;BME280;60570;50.848;6.776;2024-01-30T01:03:55;101677.72;;;10.13;67.54
72548;BME280;60570;50.848;6.776;2024-01-30T01:04:57;101674.44;;;10.11;67.73
72548;BME280;60570;50.848;6.776;2024-01-30T01:05:58;101676.09;;;10.12;67.77
72548;BME280;60570;50.848;6.776;2024-01-30T01:06:59;101671.38;;;10.12;67.37
72548;BME280;60570;50.848;6.776;2024-01-30T01:08:01;101671.38;;;10.12;67.93
72548;BME280;60570;50.848;6.776;2024-01-30T01:09:02;101672.19;;;10.13;67.53
72548;BME280;60570;50.848;6.776;2024-01-30T01:10:04;101670.53;;;10.12;67.78
72548;BME280;60570;50.848;6.776;2024-01-30T01:11:06;101669.72;;;10.11;67.77
72548;BME280;60570;50.848;6.776;2024-01-30T01:12:07;101667.78;;;10.12;67.55
72548;BME280;60570;50.848;6.776;2024-01-30T01:13:08;101674.69;;;10.14;67.43
72548;BME280;60570;50.848;6.776;2024-01-30T01:14:09;101674.69;;;10.14;67.56
72548;BME280;60570;50.848;6.776;2024-01-30T01:15:11;101673.84;;;10.14;67.31
72548;BME280;60570;50.848;6.776;2024-01-30T01:16:13;101672.50;;;10.11;67.71
72548;BME280;60570;50.848;6.776;2024-01-30T01:17:15;101671.38;;;10.12;67.71
72548;BME280;60570;50.848;6.776;2024-01-30T01:18:16;101667.47;;;10.13;67.46
72548;BME280;60570;50.848;6.776;2024-01-30T01:19:17;101677.44;;;10.14;67.64
72548;BME280;60570;50.848;6.776;2024-01-30T01:20:18;101667.78;;;10.12;67.60
72548;BME280;60570;50.848;6.776;2024-01-30T01:21:19;101674.69;;;10.14;67.30
72548;BME280;60570;50.848;6.776;2024-01-30T01:22:20;101667.78;;;10.12;67.55
72548;BME280;60570;50.848;6.776;2024-01-30T01:23:21;101669.72;;;10.11;67.74
72548;BME280;60570;50.848;6.776;2024-01-30T01:24:23;101674.44;;;10.11;67.33
72548;BME280;60570;50.848;6.776;2024-01-30T01:25:24;101672.19;;;10.13;67.66
72548;BME280;60570;50.848;6.776;2024-01-30T01:26:25;101681.13;;;10.10;67.71
72548;BME280;60570;50.848;6.776;2024-01-30T01:27:26;101673.31;;;10.12;67.86
72548;BME280;60570;50.848;6.776;2024-01-30T01:28:27;101671.38;;;10.12;67.46
72548;BME280;60570;50.848;6.776;2024-01-30T01:29:29;101667.78;;;10.12;67.31
72548;BME280;60570;50.848;6.776;2024-01-30T01:30:29;101677.22;;;10.11;67.47
72548;BME280;60570;50.848;6.776;2024-01-30T01:31:32;101671.38;;;10.12;67.41
72548;BME280;60570;50.848;6.776;2024-01-30T01:32:33;101675.28;;;10.11;67.66
72548;BME280;60570;50.848;6.776;2024-01-30T01:33:34;101670.53;;;10.12;67.34
72548;BME280;60570;50.848;6.776;2024-01-30T01:34:37;101669.72;;;10.11;67.70
72548;BME280;60570;50.848;6.776;2024-01-30T01:35:38;101670.25;;;10.13;67.46
72548;BME280;60570;50.848;6.776;2024-01-30T01:36:40;101666.09;;;10.11;67.50
72548;BME280;60570;50.848;6.776;2024-01-30T01:37:41;101671.94;;;10.09;67.75
72548;BME280;60570;50.848;6.776;2024-01-30T01:38:41;101664.16;;;10.11;67.48
72548;BME280;60570;50.848;6.776;2024-01-30T01:39:43;101669.41;;;10.13;67.81
72548;BME280;60570;50.848;6.776;2024-01-30T01:40:44;101671.66;;;10.11;67.80
72548;BME280;60570;50.848;6.776;2024-01-30T01:41:45;101664.75;;;10.08;67.49
72548;BME280;60570;50.848;6.776;2024-01-30T01:42:47;101671.94;;;10.09;67.81
72548;BME280;60570;50.848;6.776;2024-01-30T01:43:47;101668.06;;;10.10;67.64
72548;BME280;60570;50.848;6.776;2024-01-30T01:44:50;101660.56;;;10.11;67.45
72548;BME280;60570;50.848;6.776;2024-01-30T01:45:51;101662.22;;;10.12;67.38
72548;BME280;60570;50.848;6.776;2024-01-30T01:46:54;101667.78;;;10.12;67.78
72548;BME280;60570;50.848;6.776;2024-01-30T01:47:56;101667.47;;;10.13;67.49
72548;BME280;60570;50.848;6.776;2024-01-30T01:48:57;101661.06;;;10.13;67.54
72548;BME280;60570;50.848;6.776;2024-01-30T01:49:58;101660.56;;;10.11;67.38
72548;BME280;60570;50.848;6.776;2024-01-30T01:51:00;101658.59;;;10.11;67.62
72548;BME280;60570;50.848;6.776;2024-01-30T01:52:02;101663.03;;;10.12;67.22
72548;BME280;60570;50.848;6.776;2024-01-30T01:53:03;101660.00;;;10.09;67.37
72548;BME280;60570;50.848;6.776;2024-01-30T01:54:06;101662.78;;;10.09;67.61
72548;BME280;60570;50.848;6.776;2024-01-30T01:55:08;101662.53;;;10.10;67.82
72548;BME280;60570;50.848;6.776;2024-01-30T01:56:10;101652.50;;;10.09;67.87
72548;BME280;60570;50.848;6.776;2024-01-30T01:57:11;101656.69;;;10.07;67.73
72548;BME280;60570;50.848;6.776;2024-01-30T01:58:13;101657.84;;;10.06;67.61
72548;BME280;60570;50.848;6.776;2024-01-30T01:59:15;101658.69;;;10.06;67.81
72548;BME280;60570;50.848;6.776;2024-01-30T02:00:18;101655.91;;;10.06;67.74
72548;BME280;60570;50.848;6.776;2024-01-30T02:01:20;101654.44;;;10.09;67.53
72548;BME280;60570;50.848;6.776;2024-01-30T02:02:24;101656.97;;;10.10;67.37
72548;BME280;60570;50.848;6.776;2024-01-30T02:03:26;101656.97;;;10.10;67.61
72548;BME280;60570;50.848;6.776;2024-01-30T02:04:28;101655.59;;;10.08;67.26
72548;BME280;60570;50.848;6.776;2024-01-30T02:05:29;101660.84;;;10.09;67.41
72548;BME280;60570;50.848;6.776;2024-01-30T02:06:32;101660.63;;;10.06;67.38
72548;BME280;60570;50.848;6.776;2024-01-30T02:07:33;101655.91;;;10.06;67.51
72548;BME280;60570;50.848;6.776;2024-01-30T02:08:37;101658.69;;;10.06;67.51
72548;BME280;60570;50.848;6.776;2024-01-30T02:09:37;101656.41;;;10.08;67.65
72548;BME280;60570;50.848;6.776;2024-01-30T02:10:39;101651.16;;;10.07;67.79
72548;BME280;60570;50.848;6.776;2024-01-30T02:11:40;101649.72;;;10.09;67.84
72548;BME280;60570;50.848;6.776;2024-01-30T02:12:42;101654.44;;;10.09;67.48
72548;BME280;60570;50.848;6.776;2024-01-30T02:13:43;101655.28;;;10.09;67.43
72548;BME280;60570;50.848;6.776;2024-01-30T02:14:45;101650.88;;;10.08;67.63
72548;BME280;60570;50.848;6.776;2024-01-30T02:15:49;101650.34;;;10.06;67.50
72548;BME280;60570;50.848;6.776;2024-01-30T02:16:51;101650.03;;;10.08;67.77
72548;BME280;60570;50.848;6.776;2024-01-30T02:17:53;101653.38;;;10.10;67.47
72548;BME280;60570;50.848;6.776;2024-01-30T02:18:54;101652.50;;;10.09;67.62
72548;BME280;60570;50.848;6.776;2024-01-30T02:19:55;101658.06;;;10.09;67.52
72548;BME280;60570;50.848;6.776;2024-01-30T02:20:58;101650.03;;;10.08;67.46
72548;BME280;60570;50.848;6.776;2024-01-30T02:22:04;101648.91;;;10.09;67.56
72548;BME280;60570;50.848;6.776;2024-01-30T02:23:07;101648.66;;;10.10;67.24
72548;BME280;60570;50.848;6.776;2024-01-30T02:24:08;101645.31;;;10.08;67.50
72548;BME280;60570;50.848;6.776;2024-01-30T02:25:09;101647.56;;;10.06;67.71
72548;BME280;60570;50.848;6.776;2024-01-30T02:26:10;101646.22;;;10.04;67.58
72548;BME280;60570;50.848;6.776;2024-01-30T02:27:12;101642.31;;;10.05;67.56
72548;BME280;60570;50.848;6.776;2024-01-30T02:28:13;101645.59;;;10.07;67.65
72548;BME280;60570;50.848;6.776;2024-01-30T02:29:15;101645.31;;;10.08;67.38
72548;BME280;60570;50.848;6.776;2024-01-30T02:30:16;101646.13;;;10.09;67.39
72548;BME280;60570;50.848;6.776;2024-01-30T02:31:18;101645.03;;;10.10;67.65
72548;BME280;60570;50.848;6.776;2024-01-30T02:32:18;101643.09;;;10.10;67.22
72548;BME280;60570;50.848;6.776;2024-01-30T02:33:20;101640.31;;;10.10;67.31
72548;BME280;60570;50.848;6.776;2024-01-30T02:34:22;101635.00;;;10.09;67.59
72548;BME280;60570;50.848;6.776;2024-01-30T02:35:24;101633.38;;;10.08;67.85
72548;BME280;60570;50.848;6.776;2024-01-30T02:36:24;101635.84;;;10.09;67.59
72548;BME280;60570;50.848;6.776;2024-01-30T02:37:26;101635.00;;;10.09;67.48
72548;BME280;60570;50.848;6.776;2024-01-30T02:38:28;101631.44;;;10.08;67.29
72548;BME280;60570;50.848;6.776;2024-01-30T02:39:29;101637.00;;;10.08;67.44
72548;BME280;60570;50.848;6.776;2024-01-30T02:40:30;101630.59;;;10.08;67.77
72548;BME280;60570;50.848;6.776;2024-01-30T02:41:32;101630.28;;;10.09;67.21
72548;BME280;60570;50.848;6.776;2024-01-30T02:42:33;101640.31;;;10.10;67.44
72548;BME280;60570;50.848;6.776;2024-01-30T02:43:34;101633.94;;;10.10;67.44
72548;BME280;60570;50.848;6.776;2024-01-30T02:44:35;101632.00;;;10.10;67.18
72548;BME280;60570;50.848;6.776;2024-01-30T02:45:37;101635.56;;;10.11;67.23
72548;BME280;60570;50.848;6.776;2024-01-30T02:46:37;101639.47;;;10.10;67.37
72548;BME280;60570;50.848;6.776;2024-01-30T02:47:40;101635.84;;;10.09;67.35
72548;BME280;60570;50.848;6.776;2024-01-30T02:48:41;101636.47;;;10.06;67.65
72548;BME280;60570;50.848;6.776;2024-01-30T02:49:42;101633.69;;;10.06;67.75
72548;BME280;60570;50.848;6.776;2024-01-30T02:50:43;101632.84;;;10.06;67.56
72548;BME280;60570;50.848;6.776;2024-01-30T02:51:44;101629.56;;;10.04;67.70
72548;BME280;60570;50.848;6.776;2024-01-30T02:52:47;101626.28;;;10.02;67.91
72548;BME280;60570;50.848;6.776;2024-01-30T02:53:47;101629.03;;;10.02;67.51
72548;BME280;60570;50.848;6.776;2024-01-30T02:54:49;101625.13;;;10.03;67.71
72548;BME280;60570;50.848;6.776;2024-01-30T02:55:50;101629.25;;;10.05;67.63
72548;BME280;60570;50.848;6.776;2024-01-30T02:56:51;101625.66;;;10.05;67.53
72548;BME280;60570;50.848;6.776;2024-01-30T02:57:52;101624.00;;;10.04;67.88
72548;BME280;60570;50.848;6.776;2024-01-30T02:58:53;101624.84;;;10.04;67.88
72548;BME280;60570;50.848;6.776;2024-01-30T02:59:54;101626.28;;;10.02;67.71
72548;BME280;60570;50.848;6.776;2024-01-30T03:00:55;101625.44;;;10.01;67.60
72548;BME280;60570;50.848;6.776;2024-01-30T03:01:56;101625.44;;;10.01;67.64
72548;BME280;60570;50.848;6.776;2024-01-30T03:02:57;101621.25;;;10.04;67.77
72548;BME280;60570;50.848;6.776;2024-01-30T03:03:59;101623.69;;;10.05;67.61
72548;BME280;60570;50.848;6.776;2024-01-30T03:04:59;101626.47;;;10.05;67.99
72548;BME280;60570;50.848;6.776;2024-01-30T03:06:00;101618.47;;;10.04;67.95
72548;BME280;60570;50.848;6.776;2024-01-30T03:07:02;101623.19;;;10.03;67.64
72548;BME280;60570;50.848;6.776;2024-01-30T03:08:05;101619.56;;;10.03;67.51
72548;BME280;60570;50.848;6.776;2024-01-30T03:09:07;101620.41;;;10.03;68.00
72548;BME280;60570;50.848;6.776;2024-01-30T03:10:09;101619.81;;;10.06;67.90
72548;BME280;60570;50.848;6.776;2024-01-30T03:11:11;101627.31;;;10.06;67.39
72548;BME280;60570;50.848;6.776;2024-01-30T03:12:12;101622.88;;;10.05;67.48
72548;BME280;60570;50.848;6.776;2024-01-30T03:13:13;101625.13;;;10.03;67.60
72548;BME280;60570;50.848;6.776;2024-01-30T03:14:14;101626.78;;;10.04;67.81
72548;BME280;60570;50.848;6.776;2024-01-30T03:15:16;101624.31;;;10.02;67.59
72548;BME280;60570;50.848;6.776;2024-01-30T03:16:16;101628.72;;;10.03;67.83
72548;BME280;60570;50.848;6.776;2024-01-30T03:17:18;101624.00;;;10.04;67.72
72548;BME280;60570;50.848;6.776;2024-01-30T03:18:20;101625.66;;;10.05;67.63
72548;BME280;60570;50.848;6.776;2024-01-30T03:19:22;101620.91;;;10.05;67.80
72548;BME280;60570;50.848;6.776;2024-01-30T03:20:23;101626.28;;;10.02;67.48
72548;BME280;60570;50.848;6.776;2024-01-30T03:21:24;101620.72;;;10.02;67.50
72548;BME280;60570;50.848;6.776;2024-01-30T03:22:25;101613.53;;;10.01;68.02
72548;BME280;60570;50.848;6.776;2024-01-30T03:23:28;101621.03;;;10.00;67.55
72548;BME280;60570;50.848;6.776;2024-01-30T03:24:29;101618.78;;;10.02;67.62
72548;BME280;60570;50.848;6.776;2024-01-30T03:25:31;101624.00;;;10.04;67.62
72548;BME280;60570;50.848;6.776;2024-01-30T03:26:32;101620.09;;;10.05;67.80
72548;BME280;60570;50.848;6.776;2024-01-30T03:27:33;101618.97;;;10.06;67.32
72548;BME280;60570;50.848;6.776;2024-01-30T03:28:34;101617.63;;;10.03;67.71
72548;BME280;60570;50.848;6.776;2024-01-30T03:29:35;101614.84;;;10.03;67.57
72548;BME280;60570;50.848;6.776;2024-01-30T03:30:37;101619.28;;;10.04;67.75
72548;BME280;60570;50.848;6.776;2024-01-30T03:31:38;101613.53;;;10.01;67.71
72548;BME280;60570;50.848;6.776;2024-01-30T03:32:39;101612.06;;;10.03;67.61
72548;BME280;60570;50.848;6.776;2024-01-30T03:33:40;101618.78;;;10.02;67.62
72548;BME280;60570;50.848;6.776;2024-01-30T03:34:42;101621.25;;;10.04;67.40
72548;BME280;60570;50.848;6.776;2024-01-30T03:35:42;101618.16;;;10.05;67.48
72548;BME280;60570;50.848;6.776;2024-01-30T03:36:44;101618.47;;;10.04;67.90
72548;BME280;60570;50.848;6.776;2024-01-30T03:37:45;101619.28;;;10.04;67.70
72548;BME280;60570;50.848;6.776;2024-01-30T03:38:48;101612.59;;;10.05;67.36
72548;BME280;60570;50.848;6.776;2024-01-30T03:39:49;101609.81;;;10.05;67.30
72548;BME280;60570;50.848;6.776;2024-01-30T03:40:50;101611.16;;;10.08;67.73
72548;BME280;60570;50.848;6.776;2024-01-30T03:41:51;101608.72;;;10.06;67.68
72548;BME280;60570;50.848;6.776;2024-01-30T03:42:53;101609.81;;;10.05;67.36
72548;BME280;60570;50.848;6.776;2024-01-30T03:43:53;101614.53;;;10.05;67.28
72548;BME280;60570;50.848;6.776;2024-01-30T03:44:56;101608.78;;;10.01;67.51
72548;BME280;60570;50.848;6.776;2024-01-30T03:45:57;101605.19;;;10.01;67.79
72548;BME280;60570;50.848;6.776;2024-01-30T03:46:57;101616.00;;;10.02;67.49
72548;BME280;60570;50.848;6.776;2024-01-30T03:47:59;101610.13;;;10.04;67.40
72548;BME280;60570;50.848;6.776;2024-01-30T03:49:00;101605.41;;;10.04;67.66
72548;BME280;60570;50.848;6.776;2024-01-30T03:50:02;101613.75;;;10.04;67.67
72548;BME280;60570;50.848;6.776;2024-01-30T03:51:03;101606.53;;;10.03;67.53
72548;BME280;60570;50.848;6.776;2024-01-30T03:52:04;101606.00;;;10.01;67.39
72548;BME280;60570;50.848;6.776;2024-01-30T03:53:05;101611.25;;;10.03;67.74
72548;BME280;60570;50.848;6.776;2024-01-30T03:54:08;101606.53;;;10.03;67.83
72548;BME280;60570;50.848;6.776;2024-01-30T03:55:10;101601.81;;;10.04;67.68
72548;BME280;60570;50.848;6.776;2024-01-30T03:56:12;101599.84;;;10.04;67.59
72548;BME280;60570;50.848;6.776;2024-01-30T03:57:13;101598.72;;;10.05;67.70
72548;BME280;60570;50.848;6.776;2024-01-30T03:58:15;101608.72;;;10.06;67.31
72548;BME280;60570;50.848;6.776;2024-01-30T03:59:16;101608.19;;;10.04;67.49
72548;BME280;60570;50.848;6.776;2024-01-30T04:00:18;101609.00;;;10.05;67.44
72548;BME280;60570;50.848;6.776;2024-01-30T04:01:19;101605.41;;;10.04;67.51
72548;BME280;60570;50.848;6.776;2024-01-30T04:02:20;101598.19;;;10.03;67.47
72548;BME280;60570;50.848;6.776;2024-01-30T04:03:22;101595.09;;;10.05;67.42
72548;BME280;60570;50.848;6.776;2024-01-30T04:04:22;101602.63;;;10.04;67.77
72548;BME280;60570;50.848;6.776;2024-01-30T04:05:24;101599.84;;;10.04;67.77
72548;BME280;60570;50.848;6.776;2024-01-30T04:06:26;101599.03;;;10.04;67.45
72548;BME280;60570;50.848;6.776;2024-01-30T04:07:27;101603.16;;;10.06;67.70
72548;BME280;60570;50.848;6.776;2024-01-30T04:08:29;101590.69;;;10.04;67.78
72548;BME280;60570;50.848;6.776;2024-01-30T04:09:32;101591.00;;;10.02;67.42
72548;BME280;60570;50.848;6.776;2024-01-30T04:10:33;101603.22;;;10.01;67.32
72548;BME280;60570;50.848;6.776;2024-01-30T04:11:35;101599.34;;;10.02;67.56
72548;BME280;60570;50.848;6.776;2024-01-30T04:12:36;101600.13;;;10.03;67.74
72548;BME280;60570;50.848;6.776;2024-01-30T04:13:37;101600.13;;;10.03;67.74
72548;BME280;60570;50.848;6.776;2024-01-30T04:14:39;101592.66;;;10.03;67.70
72548;BME280;60570;50.848;6.776;2024-01-30T04:15:40;101604.91;;;10.02;67.68
72548;BME280;60570;50.848;6.776;2024-01-30T04:16:41;101599.66;;;10.01;67.48
72548;BME280;60570;50.848;6.776;2024-01-30T04:17:43;101600.75;;;10.00;67.53
72548;BME280;60570;50.848;6.776;2024-01-30T04:18:44;101603.84;;;9.98;67.37
72548;BME280;60570;50.848;6.776;2024-01-30T04:19:44;101601.06;;;9.98;67.87
72548;BME280;60570;50.848;6.776;2024-01-30T04:20:46;101599.41;;;9.97;67.84
72548;BME280;60570;50.848;6.776;2024-01-30T04:21:47;101600.25;;;9.98;67.61
72548;BME280;60570;50.848;6.776;2024-01-30T04:22:47;101596.94;;;9.95;67.52
72548;BME280;60570;50.848;6.776;2024-01-30T04:23:50;101593.34;;;9.95;68.00
72548;BME280;60570;50.848;6.776;2024-01-30T04:24:53;101593.06;;;9.97;67.90
72548;BME280;60570;50.848;6.776;2024-01-30T04:25:54;101593.34;;;9.95;67.63
72548;BME280;60570;50.848;6.776;2024-01-30T04:26:55;101597.25;;;9.94;67.94
72548;BME280;60570;50.848;6.776;2024-01-30T04:27:57;101594.47;;;9.94;67.64
72548;BME280;60570;50.848;6.776;2024-01-30T04:28:57;101601.16;;;9.93;67.87
72548;BME280;60570;50.848;6.776;2024-01-30T04:29:59;101601.47;;;9.91;67.90
72548;BME280;60570;50.848;6.776;2024-01-30T04:31:00;101597.56;;;9.92;67.45
72548;BME280;60570;50.848;6.776;2024-01-30T04:32:00;101600.34;;;9.92;68.02
72548;BME280;60570;50.848;6.776;2024-01-30T04:33:02;101603.66;;;9.94;67.70
72548;BME280;60570;50.848;6.776;2024-01-30T04:34:03;101596.75;;;9.92;68.06
72548;BME280;60570;50.848;6.776;2024-01-30T04:35:06;101597.06;;;9.90;67.88
72548;BME280;60570;50.848;6.776;2024-01-30T04:36:08;101588.19;;;9.88;67.70
72548;BME280;60570;50.848;6.776;2024-01-30T04:37:11;101592.94;;;9.88;67.83
72548;BME280;60570;50.848;6.776;2024-01-30T04:38:12;101602.88;;;9.89;67.71
72548;BME280;60570;50.848;6.776;2024-01-30T04:39:14;101599.50;;;9.92;67.99
72548;BME280;60570;50.848;6.776;2024-01-30T04:40:16;101602.59;;;9.90;67.82
72548;BME280;60570;50.848;6.776;2024-01-30T04:41:19;101594.56;;;9.89;67.76
72548;BME280;60570;50.848;6.776;2024-01-30T04:42:19;101600.72;;;9.86;67.90
72548;BME280;60570;50.848;6.776;2024-01-30T04:43:21;101596.81;;;9.87;68.23
72548;BME280;60570;50.848;6.776;2024-01-30T04:44:22;101600.22;;;9.84;67.95
72548;BME280;60570;50.848;6.776;2024-01-30T04:45:23;101597.44;;;9.84;68.16
72548;BME280;60570;50.848;6.776;2024-01-30T04:46:24;101604.03;;;9.88;68.02
72548;BME280;60570;50.848;6.776;2024-01-30T04:47:26;101604.84;;;9.88;68.04
72548;BME280;60570;50.848;6.776;2024-01-30T04:48:26;101600.09;;;9.89;68.03
72548;BME280;60570;50.848;6.776;2024-01-30T04:49:28;101600.94;;;9.89;68.19
72548;BME280;60570;50.848;6.776;2024-01-30T04:50:29;101602.59;;;9.90;68.05
72548;BME280;60570;50.848;6.776;2024-01-30T04:51:31;101597.63;;;9.87;67.61
72548;BME280;60570;50.848;6.776;2024-01-30T04:52:31;101610.41;;;9.88;68.08
72548;BME280;60570;50.848;6.776;2024-01-30T04:53:32;101608.44;;;9.89;68.05
72548;BME280;60570;50.848;6.776;2024-01-30T04:54:34;101598.47;;;9.88;67.76
72548;BME280;60570;50.848;6.776;2024-01-30T04:55:36;101607.31;;;9.90;67.86
72548;BME280;60570;50.848;6.776;2024-01-30T04:56:38;101596.22;;;9.90;67.82
72548;BME280;60570;50.848;6.776;2024-01-30T04:57:40;101598.16;;;9.89;67.85
72548;BME280;60570;50.848;6.776;2024-01-30T04:58:41;101598.16;;;9.89;67.75
72548;BME280;60570;50.848;6.776;2024-01-30T04:59:42;101595.91;;;9.91;68.05
72548;BME280;60570;50.848;6.776;2024-01-30T05:00:44;101592.81;;;9.93;67.45
72548;BME280;60570;50.848;6.776;2024-01-30T05:01:46;101591.19;;;9.92;67.63
72548;BME280;60570;50.848;6.776;2024-01-30T05:02:48;101586.75;;;9.91;67.93
72548;BME280;60570;50.848;6.776;2024-01-30T05:03:48;101593.44;;;9.90;67.65
72548;BME280;60570;50.848;6.776;2024-01-30T05:04:50;101588.41;;;9.92;67.98
72548;BME280;60570;50.848;6.776;2024-01-30T05:05:51;101587.00;;;9.94;67.62
72548;BME280;60570;50.848;6.776;2024-01-30T05:06:52;101593.34;;;9.95;67.57
72548;BME280;60570;50.848;6.776;2024-01-30T05:07:53;101595.59;;;9.93;67.95
72548;BME280;60570;50.848;6.776;2024-01-30T05:08:55;101592.81;;;9.93;67.78
72548;BME280;60570;50.848;6.776;2024-01-30T05:09:56;101586.47;;;9.92;67.90
72548;BME280;60570;50.848;6.776;2024-01-30T05:11:01;101592.03;;;9.92;67.86
72548;BME280;60570;50.848;6.776;2024-01-30T05:12:04;101596.44;;;9.93;67.77
72548;BME280;60570;50.848;6.776;2024-01-30T05:13:05;101590.97;;;9.88;67.84
72548;BME280;60570;50.848;6.776;2024-01-30T05:14:06;101591.50;;;9.90;67.69
72548;BME280;60570;50.848;6.776;2024-01-30T05:15:08;101596.75;;;9.92;67.99
72548;BME280;60570;50.848;6.776;2024-01-30T05:16:10;101591.50;;;9.90;67.84
72548;BME280;60570;50.848;6.776;2024-01-30T05:17:11;101594.56;;;9.89;67.59
72548;BME280;60570;50.848;6.776;2024-01-30T05:18:13;101595.06;;;9.91;67.76
72548;BME280;60570;50.848;6.776;2024-01-30T05:19:14;101597.84;;;9.91;67.61
72548;BME280;60570;50.848;6.776;2024-01-30T05:20:16;101586.47;;;9.92;67.93
72548;BME280;60570;50.848;6.776;2024-01-30T05:21:17;101596.44;;;9.93;67.69
72548;BME280;60570;50.848;6.776;2024-01-30T05:22:19;101600.34;;;9.92;67.66